Portada
METAR-TAF:

METAR-TAF

Aeropuertos :

Bilbao, España

Aeropuerto de Bilbao

latitud: 43-18N, longitud: 002-56W, altitud: 42 m

Observación

El informe se hizo hace 39 minutos, a las 16:00 UTC
Viento 4 kt del este-noreste, variando entre norte y sur-sureste
Temperatura 24°C
Humedad 54%
Presión 1017 hPa
Visibilidad 10 km o más
sin nubes por debajo de 1500 m y sin presencia de cumulonimbus.

METAR: LEBB 201600Z 06004KT 350V150 CAVOK 24/14 Q1017 NOSIG

Hora: 18:39 (16:39 UTC)

Pronóstico

El informe se hizo hace 5 horas y 39 minutos, a las 11:00 UTC
Pronóstico válido del 20 a las 12 UTC al 21 a las 12 UTC
Viento 8 kt del este-noreste
Visibilidad 10 km o más
sin nubes por debajo de 1500 m y sin presencia de cumulonimbus.
Evolucionando progresivamente
del 21 a las 07 UTC al 21 a las 10 UTC
Viento 10 kt del oeste

TAF: LEBB 201100Z 2012/2112 07008KT CAVOK TX24/2014Z TN11/2105Z BECMG 2107/2110 28010KT

Observaciones y pronósticos meteorológicos de más de 4000 aeropuertos (mensajes METAR y TAF).

Los puntos amarillos y rojos representan las estaciones disponibles.

Ponga el ratón en el punto deseado para ver el nombre de la estación.

Haga clic para ver las observaciones y los pronósticos meteorológicos.

Para cambiar el mapa : haga clic en los botones verdes con una cruz de color negro para hacer un zoom, en el botón verde con un guión para alejar o en las flechas verdes para mapas adyacentes.


METAR-TAF: